createdAt,value
2022-10-31T00:01:21.511Z,3.93
2022-10-31T00:03:49.784Z,4.47
2022-10-31T00:06:19.049Z,4.40
2022-10-31T00:08:47.168Z,3.33
2022-10-31T00:11:16.488Z,5.17
2022-10-31T00:13:44.418Z,5.03
2022-10-31T00:16:17.034Z,3.90
2022-10-31T00:18:45.271Z,4.43
2022-10-31T00:21:13.184Z,4.90
2022-10-31T00:23:41.100Z,4.73
2022-10-31T00:26:09.023Z,4.50
2022-10-31T00:28:38.375Z,4.47
2022-10-31T00:31:08.725Z,5.57
2022-10-31T00:33:38.569Z,4.83
2022-10-31T00:36:08.297Z,4.23
2022-10-31T00:38:36.235Z,4.73
2022-10-31T00:41:04.251Z,4.50
2022-10-31T00:43:32.204Z,4.40
2022-10-31T00:46:01.478Z,4.90
2022-10-31T00:48:29.438Z,4.13
2022-10-31T00:50:57.476Z,4.13
2022-10-31T00:53:25.494Z,3.97
2022-10-31T00:55:53.400Z,4.60
2022-10-31T00:58:21.495Z,5.10
2022-10-31T01:00:55.797Z,5.20
2022-10-31T01:03:27.727Z,5.17
2022-10-31T01:06:00.232Z,4.97
2022-10-31T01:08:28.461Z,5.03
2022-10-31T01:11:05.243Z,4.93
2022-10-31T01:13:33.418Z,4.60
2022-10-31T01:16:02.363Z,4.30
2022-10-31T01:18:32.058Z,4.43
2022-10-31T01:21:05.060Z,4.57
2022-10-31T01:23:33.976Z,4.30
2022-10-31T01:26:10.741Z,4.70
2022-10-31T01:28:40.845Z,4.47
2022-10-31T01:31:10.493Z,4.80
2022-10-31T01:33:40.466Z,4.03
2022-10-31T01:36:17.330Z,4.40
2022-10-31T01:38:45.383Z,4.17
2022-10-31T01:41:15.212Z,4.00
2022-10-31T01:43:48.905Z,4.50
2022-10-31T01:46:19.649Z,4.00
2022-10-31T01:48:49.797Z,4.43
2022-10-31T01:51:21.522Z,4.87
2022-10-31T01:53:52.066Z,4.70
2022-10-31T01:56:20.511Z,4.70
2022-10-31T01:58:48.851Z,5.07
2022-10-31T02:01:18.842Z,4.70
2022-10-31T02:03:49.102Z,4.30
2022-10-31T02:06:28.373Z,4.53
2022-10-31T02:08:59.068Z,3.70
2022-10-31T02:11:27.899Z,4.70
2022-10-31T02:13:56.860Z,5.13
2022-10-31T02:16:24.780Z,4.43
2022-10-31T02:18:54.384Z,4.23
2022-10-31T02:21:30.555Z,3.80
2022-10-31T02:24:27.440Z,4.33
2022-10-31T02:27:04.583Z,3.83
2022-10-31T02:30:04.820Z,4.40
2022-10-31T02:32:44.929Z,4.13
2022-10-31T02:35:22.946Z,5.07
2022-10-31T02:37:59.755Z,3.80
2022-10-31T02:40:32.543Z,4.17
2022-10-31T02:43:07.159Z,3.87
2022-10-31T02:45:42.044Z,4.57
2022-10-31T02:48:16.025Z,3.90
2022-10-31T02:50:51.983Z,3.27
2022-10-31T02:53:19.954Z,4.60
2022-10-31T02:56:01.164Z,3.90
2022-10-31T02:58:33.492Z,3.60
2022-10-31T03:01:52.383Z,3.80
2022-10-31T03:05:05.017Z,3.70
2022-10-31T03:07:44.421Z,3.77
2022-10-31T03:10:22.234Z,3.83
2022-10-31T03:12:58.797Z,3.60
2022-10-31T03:15:31.450Z,3.87
2022-10-31T03:18:04.293Z,3.47
2022-10-31T03:20:39.143Z,3.80
2022-10-31T03:23:13.509Z,4.20
2022-10-31T03:25:42.935Z,3.80
2022-10-31T03:28:14.183Z,2.77
2022-10-31T03:30:46.156Z,3.67
2022-10-31T03:33:19.399Z,3.50
2022-10-31T03:35:50.726Z,3.60
2022-10-31T03:38:22.031Z,3.20
2022-10-31T03:40:53.374Z,3.50
2022-10-31T03:43:25.092Z,3.90
2022-10-31T03:45:53.475Z,3.73
2022-10-31T03:48:22.635Z,4.50
2022-10-31T03:51:00.338Z,3.77
2022-10-31T03:53:35.381Z,3.83
2022-10-31T03:56:09.626Z,3.43
2022-10-31T03:58:41.818Z,3.00
2022-10-31T04:01:16.004Z,4.20
2022-10-31T04:03:46.215Z,3.40
2022-10-31T04:06:18.042Z,3.10
2022-10-31T04:08:52.816Z,3.23
2022-10-31T04:11:24.688Z,3.80
2022-10-31T04:13:55.250Z,3.30
2022-10-31T04:16:25.095Z,3.70
2022-10-31T04:18:53.093Z,3.40
2022-10-31T04:21:21.102Z,3.77
2022-10-31T04:23:50.363Z,3.50
2022-10-31T04:26:18.289Z,3.77
2022-10-31T04:28:46.261Z,3.27
2022-10-31T04:31:14.753Z,4.00
2022-10-31T04:33:42.903Z,3.73
2022-10-31T04:36:10.914Z,3.60
2022-10-31T04:38:38.928Z,3.90
2022-10-31T04:41:08.308Z,3.67
2022-10-31T04:43:36.314Z,5.00
2022-10-31T04:46:05.146Z,3.57
2022-10-31T04:48:33.181Z,3.30
2022-10-31T04:51:01.514Z,4.00
2022-10-31T04:53:29.487Z,3.33
2022-10-31T04:55:59.622Z,3.80
2022-10-31T04:58:29.296Z,3.70
2022-10-31T05:00:57.720Z,3.93
2022-10-31T05:03:25.882Z,4.83
2022-10-31T05:05:53.823Z,5.57
2022-10-31T05:08:21.780Z,7.27
2022-10-31T05:10:49.738Z,6.87
2022-10-31T05:13:17.698Z,7.07
2022-10-31T05:15:47.015Z,6.43
2022-10-31T05:18:15.002Z,4.90
2022-10-31T05:20:42.923Z,4.80
2022-10-31T05:23:10.942Z,5.03
2022-10-31T05:25:38.982Z,3.57
2022-10-31T05:28:26.908Z,5.30
2022-10-31T05:30:56.203Z,3.80
2022-10-31T05:33:24.215Z,4.50
2022-10-31T05:35:52.193Z,4.10
2022-10-31T05:38:20.122Z,4.50
2022-10-31T05:40:48.071Z,3.37
2022-10-31T05:43:16.010Z,4.40
2022-10-31T05:45:43.992Z,3.90
2022-10-31T05:48:13.298Z,4.07
2022-10-31T05:50:41.254Z,4.40
2022-10-31T05:53:10.223Z,4.40
2022-10-31T05:55:38.236Z,4.70
2022-10-31T05:58:06.192Z,4.13
2022-10-31T06:00:35.957Z,3.93
2022-10-31T06:03:05.597Z,4.00
2022-10-31T06:05:35.372Z,4.10
2022-10-31T06:08:03.737Z,4.27
2022-10-31T06:10:32.048Z,4.05
2022-10-31T06:13:00.090Z,4.05
2022-10-31T06:15:28.047Z,4.95
2022-10-31T06:18:04.852Z,3.47
2022-10-31T06:20:35.436Z,4.40
2022-10-31T06:23:04.067Z,4.07
2022-10-31T06:25:32.453Z,3.67
2022-10-31T06:28:00.471Z,3.60
2022-10-31T06:30:28.505Z,4.13
2022-10-31T06:32:56.495Z,4.00
2022-10-31T06:35:24.453Z,4.07
2022-10-31T06:37:56.809Z,4.20
2022-10-31T06:40:25.421Z,5.13
2022-10-31T06:43:00.122Z,5.00
2022-10-31T06:45:28.379Z,5.00
2022-10-31T06:48:15.908Z,4.40
2022-10-31T06:50:44.997Z,5.10
2022-10-31T06:53:15.233Z,5.60
2022-10-31T06:55:44.028Z,6.22
2022-10-31T06:58:13.268Z,5.97
2022-10-31T07:00:41.351Z,5.40
2022-10-31T07:03:13.342Z,4.60
2022-10-31T07:05:41.625Z,5.03
2022-10-31T07:08:11.379Z,5.40
2022-10-31T07:10:42.654Z,5.57
2022-10-31T07:13:13.648Z,5.33
2022-10-31T07:15:43.433Z,5.50
2022-10-31T07:18:13.623Z,5.13
2022-10-31T07:20:41.732Z,5.57
2022-10-31T07:23:11.550Z,5.73
2022-10-31T07:25:41.294Z,7.40
2022-10-31T07:28:09.507Z,6.30
2022-10-31T07:30:37.904Z,7.43
2022-10-31T07:33:06.182Z,9.77
2022-10-31T07:35:35.841Z,11.30
2022-10-31T07:38:10.874Z,12.10
2022-10-31T07:40:40.483Z,7.97
2022-10-31T07:43:11.614Z,7.30
2022-10-31T07:45:41.993Z,7.57
2022-10-31T07:48:09.972Z,7.77
2022-10-31T07:50:38.052Z,7.00
2022-10-31T07:53:09.350Z,7.77
2022-10-31T07:55:38.072Z,11.57
2022-10-31T07:58:09.167Z,11.27
2022-10-31T08:00:38.700Z,10.57
2022-10-31T08:03:08.394Z,10.23
2022-10-31T08:05:37.520Z,10.27
2022-10-31T08:08:06.339Z,9.47
2022-10-31T08:10:35.365Z,9.03
2022-10-31T08:13:05.582Z,7.87
2022-10-31T08:15:38.197Z,8.03
2022-10-31T08:18:06.251Z,6.80
2022-10-31T08:20:34.255Z,6.30
2022-10-31T08:23:04.890Z,6.70
2022-10-31T08:25:38.374Z,6.03
2022-10-31T08:28:07.467Z,8.07
2022-10-31T08:30:38.360Z,6.70
2022-10-31T08:33:08.063Z,4.87
2022-10-31T08:35:36.122Z,5.80
2022-10-31T08:38:04.770Z,5.47
2022-10-31T08:40:34.180Z,6.57
2022-10-31T08:43:04.035Z,6.23
2022-10-31T08:45:33.879Z,5.40
2022-10-31T08:48:05.379Z,6.20
2022-10-31T08:50:35.256Z,5.57
2022-10-31T08:53:05.653Z,5.60
2022-10-31T08:55:44.538Z,6.20
2022-10-31T08:58:17.194Z,6.23
2022-10-31T09:00:46.235Z,6.00
2022-10-31T09:03:18.503Z,6.60
2022-10-31T09:05:46.788Z,6.67
2022-10-31T09:08:16.932Z,6.40
2022-10-31T09:10:46.079Z,5.13
2022-10-31T09:13:15.937Z,5.87
2022-10-31T09:15:45.885Z,7.87
2022-10-31T09:18:17.681Z,8.30
2022-10-31T09:20:46.943Z,8.33
2022-10-31T09:23:40.638Z,6.77
2022-10-31T09:26:08.605Z,5.40
2022-10-31T09:32:30.573Z,6.73
2022-10-31T09:35:06.396Z,6.17
2022-10-31T09:37:41.899Z,5.90
2022-10-31T09:40:35.974Z,5.67
2022-10-31T09:43:14.979Z,5.63
2022-10-31T09:45:51.623Z,4.80
2022-10-31T09:48:46.564Z,7.07
2022-10-31T09:51:20.542Z,5.70
2022-10-31T09:53:53.965Z,6.37
2022-10-31T09:56:37.739Z,5.87
2022-10-31T09:59:35.888Z,5.53
2022-10-31T10:02:06.972Z,5.27
2022-10-31T10:04:44.583Z,5.50
2022-10-31T10:07:21.169Z,5.17
2022-10-31T10:09:49.177Z,4.50
2022-10-31T10:12:25.542Z,4.70
2022-10-31T10:15:09.080Z,5.80
2022-10-31T10:17:49.203Z,4.90
2022-10-31T10:20:27.956Z,4.93
2022-10-31T10:23:08.437Z,5.30
2022-10-31T10:25:41.813Z,5.00
2022-10-31T10:28:19.282Z,4.40
2022-10-31T10:30:50.823Z,4.80
2022-10-31T10:33:22.196Z,5.70
2022-10-31T10:35:55.181Z,5.50
2022-10-31T10:38:32.206Z,5.33
2022-10-31T10:41:02.808Z,6.00
2022-10-31T10:43:35.330Z,5.60
2022-10-31T10:46:35.588Z,5.83
2022-10-31T10:49:26.233Z,4.47
2022-10-31T10:52:19.339Z,5.00
2022-10-31T10:55:04.989Z,4.13
2022-10-31T10:57:50.044Z,4.40
2022-10-31T11:00:21.496Z,4.73
2022-10-31T11:02:50.301Z,4.20
2022-10-31T11:05:25.771Z,3.80
2022-10-31T11:07:54.049Z,4.40
2022-10-31T11:10:23.468Z,4.23
2022-10-31T11:13:22.364Z,4.93
2022-10-31T11:15:58.726Z,4.20
2022-10-31T11:18:29.252Z,4.70
2022-10-31T11:20:59.215Z,4.27
2022-10-31T11:23:29.306Z,4.20
2022-10-31T11:26:00.805Z,4.90
2022-10-31T11:28:31.197Z,4.73
2022-10-31T11:31:01.128Z,4.80
2022-10-31T11:33:33.500Z,5.40
2022-10-31T11:36:02.771Z,4.80
2022-10-31T11:38:36.368Z,4.90
2022-10-31T11:41:14.916Z,4.43
2022-10-31T11:43:50.487Z,4.60
2022-10-31T11:46:23.549Z,6.13
2022-10-31T11:48:54.953Z,5.27
2022-10-31T11:51:24.251Z,4.50
2022-10-31T11:53:56.991Z,4.97
2022-10-31T11:56:29.931Z,5.50
2022-10-31T11:58:58.625Z,4.53
2022-10-31T12:01:28.504Z,4.53
2022-10-31T12:04:04.114Z,5.17
2022-10-31T12:06:35.935Z,5.00
2022-10-31T12:09:04.085Z,4.87
2022-10-31T12:11:46.607Z,5.87
2022-10-31T12:14:33.182Z,5.63
2022-10-31T12:17:07.278Z,4.73
2022-10-31T12:19:44.266Z,5.20
2022-10-31T12:22:20.527Z,4.83
2022-10-31T12:25:02.505Z,5.50
2022-10-31T12:27:49.769Z,5.43
2022-10-31T12:30:22.037Z,5.17
2022-10-31T12:33:25.238Z,4.67
2022-10-31T12:36:03.981Z,3.90
2022-10-31T12:38:50.852Z,4.43
2022-10-31T12:41:30.147Z,4.80
2022-10-31T12:44:08.370Z,5.07
2022-10-31T12:47:00.701Z,4.90
2022-10-31T12:49:41.010Z,4.50
2022-10-31T12:52:22.340Z,5.33
2022-10-31T12:55:05.640Z,4.80
2022-10-31T12:57:38.147Z,5.47
2022-10-31T13:00:15.096Z,5.00
2022-10-31T13:02:48.367Z,5.20
2022-10-31T13:05:33.574Z,5.07
2022-10-31T13:08:07.519Z,4.73
2022-10-31T13:10:42.055Z,5.17
2022-10-31T13:13:18.070Z,5.30
2022-10-31T13:15:52.594Z,4.23
2022-10-31T13:18:27.149Z,4.37
2022-10-31T13:20:57.119Z,4.53
2022-10-31T13:23:49.619Z,3.83
2022-10-31T13:26:25.873Z,6.10
2022-10-31T13:29:01.607Z,5.53
2022-10-31T13:31:30.997Z,5.50
2022-10-31T13:34:04.392Z,6.17
2022-10-31T13:36:39.605Z,5.67
2022-10-31T13:39:27.111Z,4.50
2022-10-31T13:42:01.841Z,5.23
2022-10-31T13:44:35.851Z,5.03
2022-10-31T13:47:26.074Z,4.70
2022-10-31T13:50:04.776Z,4.80
2022-10-31T13:52:32.738Z,5.43
2022-10-31T13:55:00.698Z,5.17
2022-10-31T13:57:34.600Z,5.33
2022-10-31T14:00:06.417Z,6.27
2022-10-31T14:02:38.082Z,5.23
2022-10-31T14:05:18.647Z,6.50
2022-10-31T14:07:48.763Z,6.30
2022-10-31T14:10:26.716Z,5.97
2022-10-31T14:13:04.373Z,6.07
2022-10-31T14:15:32.917Z,6.10
2022-10-31T14:18:04.842Z,6.13
2022-10-31T14:20:41.079Z,5.30
2022-10-31T14:23:34.242Z,5.83
2022-10-31T14:26:20.179Z,5.27
2022-10-31T14:28:49.334Z,5.33
2022-10-31T14:31:35.752Z,4.40
2022-10-31T14:34:21.499Z,4.60
2022-10-31T14:37:14.736Z,5.47
2022-10-31T14:40:00.147Z,5.10
2022-10-31T14:42:42.194Z,5.30
2022-10-31T14:45:22.759Z,5.83
2022-10-31T14:48:10.672Z,4.70
2022-10-31T14:50:47.871Z,4.90
2022-10-31T14:53:20.612Z,4.27
2022-10-31T14:55:53.653Z,4.67
2022-10-31T14:58:25.545Z,4.83
2022-10-31T15:00:56.365Z,4.43
2022-10-31T15:03:29.915Z,4.20
2022-10-31T15:06:02.642Z,4.67
2022-10-31T15:08:36.313Z,4.90
2022-10-31T15:11:15.776Z,5.30
2022-10-31T15:13:45.901Z,4.80
2022-10-31T15:16:17.426Z,5.50
2022-10-31T15:18:55.394Z,5.83
2022-10-31T15:21:26.965Z,5.03
2022-10-31T15:23:57.321Z,5.00
2022-10-31T15:26:28.850Z,4.90
2022-10-31T15:29:01.818Z,4.90
2022-10-31T15:31:30.108Z,5.00
2022-10-31T15:34:02.736Z,5.40
2022-10-31T15:36:35.697Z,5.30
2022-10-31T15:39:05.665Z,7.10
2022-10-31T15:41:36.933Z,6.70
2022-10-31T15:44:13.583Z,6.20
2022-10-31T15:46:41.814Z,5.83
2022-10-31T15:49:31.618Z,5.80
2022-10-31T15:52:07.634Z,5.63
2022-10-31T15:54:36.714Z,5.50
2022-10-31T15:57:05.851Z,6.60
2022-10-31T15:59:33.916Z,5.07
2022-10-31T16:02:03.799Z,5.70
2022-10-31T16:04:32.253Z,5.47
2022-10-31T16:07:18.745Z,5.60
2022-10-31T16:09:55.521Z,6.00
2022-10-31T16:12:24.584Z,6.20
2022-10-31T16:14:54.018Z,5.87
2022-10-31T16:17:26.028Z,7.97
2022-10-31T16:19:58.243Z,6.82
2022-10-31T16:22:30.052Z,7.70
2022-10-31T16:25:03.037Z,7.40
2022-10-31T16:27:34.497Z,6.87
2022-10-31T16:30:05.472Z,6.13
2022-10-31T16:32:36.464Z,6.23
2022-10-31T16:35:25.314Z,7.30
2022-10-31T16:37:54.886Z,7.60
2022-10-31T16:40:23.092Z,10.00
2022-10-31T16:42:51.103Z,10.20
2022-10-31T16:45:22.492Z,8.97
2022-10-31T16:47:50.925Z,6.80
2022-10-31T16:50:21.961Z,9.90
2022-10-31T16:55:45.763Z,9.40
2022-10-31T16:58:19.597Z,15.33
2022-10-31T17:00:48.058Z,11.70
2022-10-31T17:03:16.101Z,12.27
2022-10-31T17:05:44.094Z,32.30
2022-10-31T17:08:12.155Z,13.40
2022-10-31T17:10:42.734Z,14.20
2022-10-31T17:13:18.167Z,32.33
2022-10-31T17:15:49.445Z,13.60
2022-10-31T17:18:22.791Z,10.80
2022-10-31T17:20:57.913Z,9.50
2022-10-31T17:23:26.115Z,10.83
2022-10-31T17:25:55.389Z,13.07
2022-10-31T17:28:23.297Z,16.20
2022-10-31T17:30:51.280Z,16.87
2022-10-31T17:33:19.381Z,20.53
2022-10-31T17:35:47.368Z,45.30
2022-10-31T17:38:15.316Z,22.10
2022-10-31T17:40:43.521Z,33.73
2022-10-31T17:43:13.342Z,24.00
2022-10-31T17:45:42.801Z,26.80
2022-10-31T17:48:12.881Z,25.47
2022-10-31T17:50:40.926Z,24.40
2022-10-31T17:53:08.920Z,24.53
2022-10-31T17:55:37.666Z,27.70
2022-10-31T17:58:06.190Z,25.17
2022-10-31T18:00:35.785Z,21.03
2022-10-31T18:03:04.938Z,17.90
2022-10-31T18:05:33.277Z,15.53
2022-10-31T18:08:04.227Z,14.00
2022-10-31T18:10:32.584Z,13.20
2022-10-31T18:13:00.933Z,12.87
2022-10-31T18:15:29.194Z,13.83
2022-10-31T18:17:58.647Z,13.50
2022-10-31T18:20:26.773Z,10.97
2022-10-31T18:22:55.166Z,10.77
2022-10-31T18:25:23.084Z,10.33
2022-10-31T18:27:51.256Z,9.40
2022-10-31T18:30:19.464Z,9.90
2022-10-31T18:32:50.504Z,6.87
2022-10-31T18:35:20.056Z,7.70
2022-10-31T18:37:48.034Z,7.53
2022-10-31T18:40:16.478Z,8.27
2022-10-31T18:42:44.594Z,9.17
2022-10-31T18:45:31.194Z,9.40
2022-10-31T18:48:00.831Z,8.90
2022-10-31T18:50:30.257Z,9.70
2022-10-31T18:52:58.484Z,47.33
2022-10-31T18:55:26.564Z,44.70
2022-10-31T18:57:54.469Z,42.33
2022-10-31T19:00:22.502Z,16.07
2022-10-31T19:02:50.609Z,11.20
2022-10-31T19:05:19.246Z,11.10
2022-10-31T19:07:48.863Z,10.00
2022-10-31T19:10:17.028Z,10.20
2022-10-31T19:12:44.978Z,9.50
2022-10-31T19:15:12.890Z,10.10
2022-10-31T19:17:40.797Z,11.03
2022-10-31T19:20:09.994Z,10.20
2022-10-31T19:22:37.899Z,9.83
2022-10-31T19:25:10.686Z,10.30
2022-10-31T19:27:39.472Z,10.13
2022-10-31T19:30:09.100Z,10.33
2022-10-31T19:32:37.355Z,12.37
2022-10-31T19:35:09.016Z,18.10
2022-10-31T19:37:37.271Z,15.23
2022-10-31T19:40:08.688Z,12.33
2022-10-31T19:42:36.847Z,10.90
2022-10-31T19:45:05.708Z,12.33
2022-10-31T19:47:34.612Z,12.20
2022-10-31T19:50:04.851Z,11.33
2022-10-31T19:52:35.928Z,11.37
2022-10-31T19:55:04.391Z,11.87
2022-10-31T19:58:00.302Z,11.70
2022-10-31T20:00:25.037Z,11.77
2022-10-31T20:02:52.996Z,10.23
2022-10-31T20:05:20.945Z,11.33
2022-10-31T20:07:48.868Z,11.43
2022-10-31T20:10:17.208Z,12.87
2022-10-31T20:12:46.586Z,12.73
2022-10-31T20:15:16.269Z,16.37
2022-10-31T20:17:44.516Z,18.60
2022-10-31T20:20:12.947Z,19.37
2022-10-31T20:22:40.920Z,15.30
2022-10-31T20:25:09.386Z,16.97
2022-10-31T20:27:37.351Z,15.63
2022-10-31T20:30:09.778Z,11.83
2022-10-31T20:32:37.818Z,10.43
2022-10-31T20:35:06.461Z,11.00
2022-10-31T20:37:34.439Z,11.10
2022-10-31T20:40:02.479Z,11.15
2022-10-31T20:42:30.462Z,12.70
2022-10-31T20:45:01.210Z,11.70
2022-10-31T20:47:31.610Z,11.30
2022-10-31T20:49:59.542Z,10.63
2022-10-31T20:52:27.510Z,11.33
2022-10-31T20:54:55.446Z,10.77
2022-10-31T20:57:23.380Z,11.20
2022-10-31T20:59:51.319Z,11.80
2022-10-31T21:02:19.378Z,11.57
2022-10-31T21:04:48.714Z,10.43
2022-10-31T21:07:16.795Z,10.30
2022-10-31T21:09:44.703Z,11.27
2022-10-31T21:12:12.621Z,10.20
2022-10-31T21:14:40.558Z,10.63
2022-10-31T21:17:08.721Z,10.87
2022-10-31T21:19:36.784Z,12.43
2022-10-31T21:22:06.034Z,14.87
2022-10-31T21:24:34.118Z,13.63
2022-10-31T21:27:06.262Z,13.20
2022-10-31T21:29:36.573Z,11.43
2022-10-31T21:32:04.528Z,11.43
2022-10-31T21:34:32.586Z,11.10
2022-10-31T21:37:00.539Z,10.37
2022-10-31T21:39:29.899Z,10.80
2022-10-31T21:41:57.926Z,9.83
2022-10-31T21:44:25.844Z,10.63
2022-10-31T21:46:54.589Z,10.47
2022-10-31T21:49:22.537Z,12.07
2022-10-31T21:51:50.447Z,17.53
2022-10-31T21:54:30.248Z,17.47
2022-10-31T21:57:01.786Z,16.67
2022-10-31T21:59:30.174Z,15.10
2022-10-31T22:02:00.484Z,13.43
2022-10-31T22:04:29.497Z,14.03
2022-10-31T22:06:57.434Z,13.43
2022-10-31T22:09:25.338Z,13.07
2022-10-31T22:11:53.243Z,13.30
2022-10-31T22:14:22.546Z,10.87
2022-10-31T22:16:50.498Z,10.07
2022-10-31T22:19:18.417Z,10.93
2022-10-31T22:21:48.760Z,11.00
2022-10-31T22:24:18.521Z,12.10
2022-10-31T22:26:46.420Z,10.93
2022-10-31T22:29:16.141Z,12.90
2022-10-31T22:31:48.490Z,10.57
2022-10-31T22:34:19.600Z,11.80
2022-10-31T22:36:47.778Z,10.93
2022-10-31T22:39:16.251Z,11.00
2022-10-31T22:41:44.168Z,10.73
2022-10-31T22:44:12.927Z,11.17
2022-10-31T22:46:41.212Z,11.47
2022-10-31T22:49:15.118Z,10.93
2022-10-31T22:51:44.162Z,11.77
2022-10-31T22:54:14.265Z,11.13
2022-10-31T22:56:42.201Z,10.93
2022-10-31T22:59:13.119Z,12.60
2022-10-31T23:01:41.258Z,12.87
2022-10-31T23:06:44.059Z,12.40
2022-10-31T23:09:15.321Z,13.57
2022-10-31T23:11:45.361Z,13.20
2022-10-31T23:14:16.287Z,12.10
2022-10-31T23:16:46.165Z,10.73
2022-10-31T23:19:18.628Z,10.87
2022-10-31T23:21:59.597Z,9.63
2022-10-31T23:24:30.862Z,10.80
2022-10-31T23:27:10.895Z,11.30
2022-10-31T23:29:42.100Z,10.00
2022-10-31T23:32:12.976Z,10.57
2022-10-31T23:34:42.336Z,9.90
2022-10-31T23:37:10.690Z,9.83
2022-10-31T23:39:38.583Z,9.83
2022-10-31T23:42:06.875Z,10.33
2022-10-31T23:44:34.959Z,11.00
2022-10-31T23:47:02.915Z,9.70
2022-10-31T23:49:30.825Z,9.90
2022-10-31T23:52:00.105Z,11.00
2022-10-31T23:54:28.875Z,10.57
2022-10-31T23:56:58.199Z,9.77
2022-10-31T23:59:26.758Z,9.70
